Time;durP1;ratioP1;P1;durP2;ratioP2;P2;SDS_P1;SDS_P2;PMS_P1;PMS_P2;Temp;Humidity;BMP_temperature;BMP_pressure;BME280_temperature;BME280_humidity;BME280_pressure;Samples;Min_cycle;Max_cycle;Signal;HPM_P1;HPM_P2
2024/02/04 00:01:57;;;;;;;3.30;1.65;;;10.20;99.90;;;;;;5032499;28;20404;-40
2024/02/04 00:04:23;;;;;;;2.10;1.85;;;10.20;99.90;;;;;;5032000;28;20068;-42
2024/02/04 00:06:49;;;;;;;1.80;1.70;;;10.20;99.90;;;;;;5032689;28;20026;-42
2024/02/04 00:09:14;;;;;;;3.15;1.50;;;10.20;99.90;;;;;;5032766;28;20036;-40
2024/02/04 00:11:39;;;;;;;4.57;1.55;;;10.20;99.90;;;;;;5033573;28;20095;-41
2024/02/04 00:14:05;;;;;;;3.28;1.55;;;10.20;99.90;;;;;;5033286;28;20026;-42
2024/02/04 00:16:30;;;;;;;1.10;1.10;;;10.20;99.90;;;;;;5033972;28;20025;-40
2024/02/04 00:18:56;;;;;;;1.27;1.17;;;10.20;99.90;;;;;;5033485;28;20033;-41
2024/02/04 00:21:21;;;;;;;6.00;1.20;;;10.20;99.90;;;;;;5032457;28;20021;-43
2024/02/04 00:23:47;;;;;;;1.52;1.25;;;10.20;99.90;;;;;;5031911;28;20022;-41
2024/02/04 00:26:12;;;;;;;1.80;1.70;;;10.30;99.90;;;;;;5032132;28;20138;-40
2024/02/04 00:28:39;;;;;;;1.42;1.40;;;10.30;99.90;;;;;;5031989;28;20044;-41
2024/02/04 00:31:05;;;;;;;1.13;1.13;;;10.20;99.90;;;;;;5031967;28;20018;-42
2024/02/04 00:33:30;;;;;;;1.35;1.25;;;10.30;99.90;;;;;;5031823;28;20401;-43
2024/02/04 00:35:56;;;;;;;1.13;1.13;;;10.20;99.90;;;;;;5031686;28;20021;-42
2024/02/04 00:38:21;;;;;;;1.10;1.10;;;10.20;99.90;;;;;;5031922;28;20043;-42
2024/02/04 00:40:47;;;;;;;2.33;1.20;;;10.20;99.90;;;;;;5032263;28;20029;-42
2024/02/04 00:43:12;;;;;;;1.30;1.30;;;10.20;99.90;;;;;;5031501;28;20021;-40
2024/02/04 00:45:38;;;;;;;3.33;1.58;;;10.20;99.90;;;;;;5047161;28;20022;-41
2024/02/04 00:48:03;;;;;;;1.20;1.20;;;10.20;99.90;;;;;;5031671;28;20072;-42
2024/02/04 00:50:29;;;;;;;2.30;1.20;;;10.20;99.90;;;;;;5032081;28;20104;-41
2024/02/04 00:52:55;;;;;;;1.42;1.33;;;10.10;99.90;;;;;;5031620;28;20021;-39
2024/02/04 00:55:20;;;;;;;1.40;1.30;;;10.10;99.90;;;;;;5032351;28;20048;-40
2024/02/04 00:57:46;;;;;;;1.10;1.10;;;10.20;99.90;;;;;;5031694;28;20030;-41
2024/02/04 01:00:12;;;;;;;1.35;1.17;;;10.20;99.90;;;;;;5031637;28;20034;-41
2024/02/04 01:02:39;;;;;;;1.50;1.40;;;10.30;99.90;;;;;;5046850;28;20026;-41
2024/02/04 01:05:05;;;;;;;1.60;1.50;;;10.30;99.90;;;;;;5031331;28;20052;-41
2024/02/04 01:07:30;;;;;;;1.50;1.50;;;10.30;99.90;;;;;;5031650;28;20108;-41
2024/02/04 01:09:56;;;;;;;1.67;1.58;;;10.30;99.90;;;;;;5046897;28;20187;-39
2024/02/04 01:12:21;;;;;;;1.20;1.10;;;10.30;99.90;;;;;;5031480;28;20030;-42
2024/02/04 01:14:47;;;;;;;1.35;1.27;;;10.20;99.90;;;;;;5031645;28;20044;-45
2024/02/04 01:17:12;;;;;;;1.48;1.38;;;10.20;99.90;;;;;;5031376;28;20029;-41
2024/02/04 01:19:38;;;;;;;1.50;1.40;;;10.20;99.90;;;;;;5046557;28;20072;-41
2024/02/04 01:22:03;;;;;;;1.48;1.30;;;10.20;99.90;;;;;;5031411;28;20563;-39
2024/02/04 01:24:31;;;;;;;1.10;1.10;;;10.20;99.90;;;;;;5046991;28;20293;-42
2024/02/04 01:26:56;;;;;;;1.10;1.10;;;10.20;99.90;;;;;;5031943;28;20096;-41
2024/02/04 01:29:22;;;;;;;1.50;1.40;;;10.20;99.90;;;;;;5031288;28;20034;-43
2024/02/04 01:31:47;;;;;;;2.28;1.10;;;10.20;99.90;;;;;;5031216;28;20375;-41
2024/02/04 01:34:13;;;;;;;1.00;1.00;;;10.20;99.90;;;;;;5030860;28;20033;-41
2024/02/04 01:36:38;;;;;;;0.90;0.90;;;10.20;99.90;;;;;;5029767;28;20028;-45
2024/02/04 01:39:04;;;;;;;3.55;1.33;;;10.20;99.90;;;;;;5031278;28;20036;-40
2024/02/04 01:41:30;;;;;;;1.15;1.05;;;10.20;99.90;;;;;;5031226;28;20025;-41
2024/02/04 01:43:56;;;;;;;1.15;1.13;;;10.20;99.90;;;;;;5030922;28;20509;-41
2024/02/04 01:46:22;;;;;;;1.35;0.90;;;10.20;99.90;;;;;;5031125;28;20521;-41
2024/02/04 01:48:48;;;;;;;0.80;0.80;;;10.20;99.90;;;;;;5031091;28;20057;-40
2024/02/04 01:51:17;;;;;;;1.20;1.10;;;10.20;99.90;;;;;;5031032;28;20099;-39
2024/02/04 01:53:45;;;;;;;1.00;1.00;;;10.20;99.90;;;;;;5030705;28;20057;-41
2024/02/04 01:56:12;;;;;;;1.45;1.02;;;10.20;99.90;;;;;;5030709;28;20126;-42
2024/02/04 01:58:38;;;;;;;0.90;0.90;;;10.20;99.90;;;;;;5031227;28;20035;-43
2024/02/04 02:01:03;;;;;;;1.10;1.00;;;10.20;99.90;;;;;;5030919;28;20087;-40
2024/02/04 02:03:31;;;;;;;1.05;1.05;;;10.20;99.90;;;;;;5046059;28;20410;-46
2024/02/04 02:05:57;;;;;;;0.80;0.80;;;10.20;99.90;;;;;;5030972;28;20033;-38
2024/02/04 02:08:23;;;;;;;0.85;0.80;;;10.20;99.90;;;;;;5030812;28;20068;-46
2024/02/04 02:10:51;;;;;;;0.98;0.90;;;10.20;99.90;;;;;;5030804;28;20049;-40
2024/02/04 02:13:23;;;;;;;1.10;0.63;;;10.20;99.90;;;;;;5030714;28;20053;-40
2024/02/04 02:15:56;;;;;;;2.58;0.70;;;10.20;99.90;;;;;;5030920;28;20021;-41
2024/02/04 02:18:44;;;;;;;0.80;0.80;;;10.20;99.90;;;;;;5030824;28;20025;-43
2024/02/04 02:21:37;;;;;;;1.33;0.70;;;10.10;99.90;;;;;;5030665;28;20117;-42
2024/02/04 02:24:27;;;;;;;0.60;0.60;;;10.00;99.90;;;;;;5020784;28;20071;-41
2024/02/04 02:26:53;;;;;;;0.50;0.50;;;10.00;99.90;;;;;;5029530;28;20136;-40
2024/02/04 02:29:18;;;;;;;0.70;0.70;;;9.90;99.90;;;;;;5030712;28;20021;-40
2024/02/04 02:31:45;;;;;;;0.77;0.77;;;9.90;99.90;;;;;;5030644;28;20112;-43
2024/02/04 02:34:11;;;;;;;2.35;0.60;;;9.90;99.90;;;;;;5031812;28;20497;-42
2024/02/04 02:36:47;;;;;;;0.80;0.80;;;9.90;99.90;;;;;;5049212;28;20025;-42
2024/02/04 02:39:24;;;;;;;0.80;0.80;;;9.90;99.90;;;;;;5034280;28;20026;-42
2024/02/04 02:41:55;;;;;;;0.50;0.50;;;9.90;99.90;;;;;;5034135;28;20503;-40
2024/02/04 02:44:23;;;;;;;2.30;1.60;;;9.90;99.90;;;;;;5032559;28;20030;-40
2024/02/04 02:46:49;;;;;;;1.00;0.70;;;9.90;99.90;;;;;;5034101;28;20117;-40
2024/02/04 02:49:15;;;;;;;0.75;0.70;;;10.00;99.90;;;;;;5033859;28;20053;-44
2024/02/04 02:51:40;;;;;;;0.52;0.52;;;9.90;99.90;;;;;;5033980;28;20494;-43
2024/02/04 02:54:06;;;;;;;1.55;0.95;;;9.90;99.90;;;;;;5033328;28;20034;-39
2024/02/04 02:56:31;;;;;;;0.80;0.80;;;9.90;99.90;;;;;;5049647;28;20490;-40
2024/02/04 02:58:57;;;;;;;0.93;0.75;;;9.90;99.90;;;;;;5033818;28;20030;-42
2024/02/04 03:01:23;;;;;;;0.70;0.70;;;9.80;99.90;;;;;;5033811;28;20052;-41
2024/02/04 03:03:49;;;;;;;0.60;0.60;;;9.80;99.90;;;;;;5033587;28;20083;-41
2024/02/04 03:06:14;;;;;;;0.68;0.68;;;9.80;99.90;;;;;;5033696;28;20371;-41
2024/02/04 03:08:40;;;;;;;0.73;0.73;;;9.80;99.90;;;;;;5033451;28;20033;-41
2024/02/04 03:11:05;;;;;;;0.77;0.77;;;9.80;99.90;;;;;;5033618;28;20053;-42
2024/02/04 03:13:31;;;;;;;0.82;0.82;;;9.90;99.90;;;;;;5033896;28;20057;-40
2024/02/04 03:15:56;;;;;;;0.80;0.80;;;9.90;99.90;;;;;;5033506;28;20025;-37
2024/02/04 03:18:22;;;;;;;1.05;0.85;;;9.80;99.90;;;;;;5033968;28;20032;-41
2024/02/04 03:20:47;;;;;;;1.83;0.90;;;9.90;99.90;;;;;;5033785;28;20030;-41
2024/02/04 03:23:13;;;;;;;2.08;0.95;;;9.90;99.90;;;;;;5033375;28;20034;-40
2024/02/04 03:25:38;;;;;;;0.52;0.52;;;9.90;99.90;;;;;;5033301;28;20029;-40
2024/02/04 03:28:04;;;;;;;0.80;0.80;;;9.90;99.90;;;;;;5033322;28;20030;-45
2024/02/04 03:30:29;;;;;;;1.05;1.05;;;9.90;99.90;;;;;;5033612;28;20040;-41
2024/02/04 03:32:55;;;;;;;1.02;0.93;;;10.00;99.90;;;;;;5033160;28;20017;-41
2024/02/04 03:35:20;;;;;;;2.25;0.80;;;10.00;99.90;;;;;;5033067;28;20106;-41
2024/02/04 03:37:46;;;;;;;0.80;0.80;;;10.00;99.90;;;;;;5032993;28;20057;-41
2024/02/04 03:40:12;;;;;;;1.00;1.00;;;10.00;99.90;;;;;;5032907;28;20030;-41
2024/02/04 03:42:38;;;;;;;0.90;0.90;;;10.00;99.90;;;;;;5033213;28;20033;-41
2024/02/04 03:45:04;;;;;;;0.90;0.90;;;10.00;99.90;;;;;;5032521;28;20104;-41
2024/02/04 03:47:30;;;;;;;0.70;0.70;;;10.00;99.90;;;;;;5033026;28;20040;-40
2024/02/04 03:49:55;;;;;;;0.80;0.80;;;10.00;99.90;;;;;;5032834;28;20490;-41
2024/02/04 03:52:21;;;;;;;0.77;0.77;;;10.00;99.90;;;;;;5032765;28;20105;-37
2024/02/04 03:54:46;;;;;;;0.88;0.88;;;10.00;99.90;;;;;;5032560;28;20515;-37
2024/02/04 03:57:12;;;;;;;0.65;0.65;;;10.00;99.90;;;;;;5032742;28;20075;-40
2024/02/04 03:59:37;;;;;;;0.82;0.82;;;10.10;99.90;;;;;;5032662;28;20495;-41
2024/02/04 04:02:03;;;;;;;0.90;0.90;;;10.10;99.90;;;;;;5032592;28;20091;-41
2024/02/04 04:04:28;;;;;;;0.73;0.73;;;10.10;99.90;;;;;;5032221;28;20055;-41
2024/02/04 04:06:54;;;;;;;0.60;0.60;;;10.10;99.90;;;;;;5047762;28;20032;-40
2024/02/04 04:09:19;;;;;;;0.75;0.75;;;10.00;99.90;;;;;;5032537;28;20033;-40
2024/02/04 04:11:45;;;;;;;0.70;0.70;;;10.10;99.90;;;;;;5032557;28;20097;-40
2024/02/04 04:14:10;;;;;;;0.50;0.50;;;10.00;99.90;;;;;;5031970;28;20028;-41
2024/02/04 04:16:36;;;;;;;1.35;0.80;;;10.00;99.90;;;;;;5032454;28;20067;-45
2024/02/04 04:19:02;;;;;;;1.23;0.93;;;10.00;99.90;;;;;;5032236;28;20485;-41
2024/02/04 04:21:27;;;;;;;0.75;0.57;;;10.00;99.90;;;;;;5032322;28;20022;-40
2024/02/04 04:23:53;;;;;;;0.80;0.63;;;10.00;99.90;;;;;;5047342;28;20075;-41
2024/02/04 04:26:18;;;;;;;2.28;0.70;;;10.00;99.90;;;;;;5032156;28;20029;-41
2024/02/04 04:28:44;;;;;;;2.28;1.33;;;10.00;99.90;;;;;;5030836;28;20025;-41
2024/02/04 04:31:09;;;;;;;1.05;0.82;;;10.10;99.90;;;;;;5032024;28;20033;-41
2024/02/04 04:33:36;;;;;;;0.55;0.55;;;10.00;99.90;;;;;;5031760;28;20037;-41
2024/02/04 04:36:01;;;;;;;0.57;0.57;;;10.00;99.90;;;;;;5031646;28;20079;-40
2024/02/04 04:38:27;;;;;;;0.85;0.50;;;10.10;99.90;;;;;;5032134;28;20111;-41
2024/02/04 04:40:53;;;;;;;0.50;0.50;;;10.10;99.90;;;;;;5032079;28;20500;-40
2024/02/04 04:43:18;;;;;;;0.50;0.50;;;10.20;99.90;;;;;;5031767;28;20021;-40
2024/02/04 04:45:43;;;;;;;0.57;0.52;;;10.20;99.90;;;;;;5031934;28;20025;-43
2024/02/04 04:48:09;;;;;;;0.30;0.30;;;10.20;99.90;;;;;;5031891;28;20097;-45
2024/02/04 04:50:35;;;;;;;0.45;0.45;;;10.10;99.90;;;;;;5031905;28;20091;-40
2024/02/04 04:53:01;;;;;;;0.57;0.57;;;10.20;99.90;;;;;;5031635;28;20045;-40
2024/02/04 04:55:26;;;;;;;1.95;0.30;;;10.20;99.90;;;;;;5046953;28;20461;-41
2024/02/04 04:57:52;;;;;;;0.38;0.38;;;10.10;99.90;;;;;;5031143;28;20044;-40
2024/02/04 05:00:18;;;;;;;0.35;0.35;;;10.20;99.90;;;;;;5032117;28;20117;-43
2024/02/04 05:02:44;;;;;;;0.52;0.52;;;10.20;99.90;;;;;;5031754;28;20087;-41
2024/02/04 05:05:12;;;;;;;0.30;0.30;;;10.20;99.90;;;;;;5031291;28;20021;-40
2024/02/04 05:07:38;;;;;;;0.40;0.40;;;10.20;99.90;;;;;;5031582;28;20029;-41
2024/02/04 05:10:04;;;;;;;0.45;0.45;;;10.20;99.90;;;;;;5032081;28;20042;-41
2024/02/04 05:12:30;;;;;;;0.40;0.40;;;10.20;99.90;;;;;;5031716;28;20021;-41
2024/02/04 05:14:55;;;;;;;0.50;0.50;;;10.10;99.90;;;;;;5031353;28;20022;-43
2024/02/04 05:17:21;;;;;;;0.50;0.40;;;10.20;99.90;;;;;;5033272;28;20037;-42
2024/02/04 05:19:47;;;;;;;0.30;0.30;;;10.20;99.90;;;;;;5033614;28;20029;-42
2024/02/04 05:22:12;;;;;;;0.40;0.40;;;10.30;99.90;;;;;;5049180;28;20022;-44
2024/02/04 05:24:38;;;;;;;0.40;0.40;;;10.20;99.90;;;;;;5034109;28;20083;-41
2024/02/04 05:27:04;;;;;;;0.30;0.30;;;10.20;99.90;;;;;;5033543;28;20037;-41
2024/02/04 05:29:30;;;;;;;4.32;0.55;;;10.20;99.90;;;;;;5031221;28;20033;-41
2024/02/04 05:31:56;;;;;;;0.40;0.40;;;10.30;99.90;;;;;;5031385;28;20468;-41
2024/02/04 05:34:21;;;;;;;0.52;0.40;;;10.30;99.90;;;;;;5046199;28;20136;-43
2024/02/04 05:36:47;;;;;;;0.50;0.50;;;10.20;99.90;;;;;;5031183;28;20025;-40
2024/02/04 05:39:14;;;;;;;2.03;0.40;;;10.30;99.90;;;;;;5031282;28;20029;-41
2024/02/04 05:41:40;;;;;;;1.55;0.50;;;10.30;99.90;;;;;;5031261;28;20036;-41
2024/02/04 05:44:06;;;;;;;0.30;0.30;;;10.30;99.90;;;;;;5031289;28;20415;-40
2024/02/04 05:46:32;;;;;;;0.40;0.40;;;10.30;99.90;;;;;;5031853;28;20030;-40
2024/02/04 05:48:58;;;;;;;0.40;0.40;;;10.40;99.90;;;;;;5031278;28;20037;-40
2024/02/04 05:51:23;;;;;;;0.40;0.40;;;10.40;99.90;;;;;;5030345;28;20017;-42
2024/02/04 05:53:49;;;;;;;0.40;0.40;;;10.40;99.90;;;;;;5032219;28;20124;-41
2024/02/04 05:56:14;;;;;;;0.60;0.60;;;10.30;99.90;;;;;;5038664;28;20435;-40
2024/02/04 05:58:40;;;;;;;0.22;0.22;;;10.30;99.90;;;;;;5037566;28;20371;-41
2024/02/04 06:01:06;;;;;;;0.60;0.60;;;10.30;99.90;;;;;;5037685;28;20036;-42
2024/02/04 06:03:31;;;;;;;0.40;0.40;;;10.40;99.90;;;;;;5031515;28;20025;-45
2024/02/04 06:05:57;;;;;;;2.63;1.45;;;10.40;99.90;;;;;;5031456;28;20029;-41
2024/02/04 06:08:22;;;;;;;1.00;0.68;;;10.40;99.90;;;;;;5033023;28;20052;-40
2024/02/04 06:10:48;;;;;;;1.58;0.60;;;10.40;99.90;;;;;;5034942;28;20101;-44
2024/02/04 06:13:14;;;;;;;0.52;0.52;;;10.40;99.90;;;;;;5034652;28;20485;-39
2024/02/04 06:18:20;;;;;;;0.60;0.60;;;10.40;99.90;;;;;;4993125;28;20058;-44
2024/02/04 06:20:45;;;;;;;0.77;0.77;;;10.40;99.90;;;;;;4995581;28;20022;-44
2024/02/04 06:23:11;;;;;;;0.40;0.40;;;10.40;99.90;;;;;;4977996;28;20498;-44
2024/02/04 06:25:36;;;;;;;0.50;0.50;;;10.40;99.90;;;;;;4995521;28;20396;-48
2024/02/04 06:28:02;;;;;;;0.50;0.50;;;10.40;99.90;;;;;;5014004;28;20419;-44
2024/02/04 06:30:27;;;;;;;0.55;0.55;;;10.40;99.90;;;;;;5014916;28;20500;-47
2024/02/04 06:32:53;;;;;;;0.55;0.55;;;10.40;99.90;;;;;;5014484;28;20037;-45
2024/02/04 06:35:19;;;;;;;0.40;0.40;;;10.40;99.90;;;;;;5014289;28;20068;-43
2024/02/04 06:37:44;;;;;;;0.43;0.43;;;10.40;99.90;;;;;;5014733;28;20026;-44
2024/02/04 06:40:10;;;;;;;1.73;0.70;;;10.40;99.90;;;;;;4997232;28;20029;-46
2024/02/04 06:42:36;;;;;;;0.75;0.60;;;10.40;99.90;;;;;;5014601;28;20399;-49
2024/02/04 06:45:01;;;;;;;0.50;0.50;;;10.40;99.90;;;;;;5014806;28;20034;-49
2024/02/04 06:47:27;;;;;;;0.43;0.43;;;10.40;99.90;;;;;;5014536;28;20026;-46
2024/02/04 06:49:52;;;;;;;0.43;0.43;;;10.40;99.90;;;;;;5014452;28;20033;-47
2024/02/04 06:52:18;;;;;;;1.35;1.25;;;10.30;99.90;;;;;;5014515;28;20110;-48
2024/02/04 06:54:44;;;;;;;3.85;0.93;;;10.40;99.90;;;;;;5014442;28;20072;-48
2024/02/04 06:57:09;;;;;;;0.68;0.68;;;10.30;99.90;;;;;;5016873;28;20536;-50
2024/02/04 06:59:35;;;;;;;0.80;0.80;;;10.30;99.90;;;;;;5016644;28;20034;-50
2024/02/04 07:02:00;;;;;;;1.10;0.65;;;10.30;99.90;;;;;;5016548;28;20380;-51
2024/02/04 07:04:26;;;;;;;0.70;0.70;;;10.30;99.90;;;;;;5014953;28;20033;-47
2024/02/04 07:06:52;;;;;;;0.60;0.60;;;10.30;99.90;;;;;;5014516;28;20029;-48
2024/02/04 07:09:17;;;;;;;1.05;0.50;;;10.30;99.90;;;;;;5014028;28;20041;-51
2024/02/04 07:11:43;;;;;;;0.60;0.60;;;10.30;99.90;;;;;;5014364;28;20028;-48
2024/02/04 07:14:08;;;;;;;0.50;0.50;;;10.30;99.90;;;;;;5013721;28;20064;-48
2024/02/04 07:16:34;;;;;;;0.40;0.40;;;10.30;99.90;;;;;;4996374;28;20053;-44
2024/02/04 07:18:59;;;;;;;0.50;0.50;;;10.30;99.90;;;;;;5013488;28;20440;-47
2024/02/04 07:21:25;;;;;;;0.47;0.47;;;10.30;99.90;;;;;;4996370;28;20467;-47
2024/02/04 07:23:50;;;;;;;0.40;0.40;;;10.30;99.90;;;;;;5013538;28;20018;-45
2024/02/04 07:26:16;;;;;;;0.50;0.50;;;10.30;99.90;;;;;;5013661;28;20479;-44
2024/02/04 07:28:41;;;;;;;0.50;0.50;;;10.40;99.90;;;;;;5014184;28;20033;-45
2024/02/04 07:31:07;;;;;;;0.70;0.70;;;10.40;99.90;;;;;;5013985;28;20030;-48
2024/02/04 07:33:33;;;;;;;0.40;0.40;;;10.40;99.90;;;;;;5013592;28;20018;-45
2024/02/04 07:35:58;;;;;;;0.40;0.40;;;10.30;99.90;;;;;;5013228;28;20032;-45
2024/02/04 07:38:24;;;;;;;0.85;0.85;;;10.30;99.90;;;;;;5013665;28;20033;-45
2024/02/04 07:40:49;;;;;;;0.60;0.60;;;10.30;99.90;;;;;;5012164;28;20030;-52
2024/02/04 07:43:15;;;;;;;3.30;0.80;;;10.30;99.90;;;;;;5013162;28;20022;-45
2024/02/04 07:45:40;;;;;;;0.40;0.40;;;10.30;99.90;;;;;;4996038;28;20407;-46
2024/02/04 07:48:07;;;;;;;1.25;0.45;;;10.30;99.90;;;;;;5012089;28;20026;-46
2024/02/04 07:50:32;;;;;;;0.65;0.40;;;10.20;99.90;;;;;;5013733;28;20018;-46
2024/02/04 07:52:58;;;;;;;0.40;0.40;;;10.20;99.90;;;;;;5013746;28;20399;-50
2024/02/04 07:55:23;;;;;;;2.20;0.40;;;10.20;99.90;;;;;;5013472;28;20026;-45
2024/02/04 07:57:49;;;;;;;2.17;0.40;;;10.20;99.90;;;;;;5018354;28;20435;-48
2024/02/04 08:00:14;;;;;;;0.40;0.40;;;10.30;99.90;;;;;;5013830;28;20049;-45
2024/02/04 08:02:40;;;;;;;0.50;0.50;;;10.20;99.90;;;;;;5013316;28;20049;-48
2024/02/04 08:05:06;;;;;;;0.32;0.32;;;10.20;99.90;;;;;;5012984;28;20451;-47
2024/02/04 08:07:31;;;;;;;0.60;0.60;;;10.20;99.90;;;;;;5013010;28;20124;-45
2024/02/04 08:09:57;;;;;;;0.57;0.57;;;10.20;99.90;;;;;;5013037;28;20480;-49
2024/02/04 08:12:23;;;;;;;0.40;0.40;;;10.20;99.90;;;;;;5011886;28;20123;-44
2024/02/04 08:14:48;;;;;;;0.70;0.50;;;10.10;99.90;;;;;;5012613;28;20030;-49
2024/02/04 08:17:14;;;;;;;0.40;0.40;;;10.10;99.90;;;;;;5012651;28;20249;-46
2024/02/04 08:19:40;;;;;;;0.88;0.88;;;10.10;99.90;;;;;;4995741;28;20080;-45
2024/02/04 08:22:05;;;;;;;1.02;0.47;;;10.10;99.90;;;;;;5013022;28;20026;-56
2024/02/04 08:24:32;;;;;;;0.50;0.50;;;10.10;99.90;;;;;;5011841;28;20060;-47
2024/02/04 08:26:59;;;;;;;0.50;0.50;;;10.20;99.90;;;;;;5012528;28;20033;-45
2024/02/04 08:29:25;;;;;;;0.40;0.40;;;10.10;99.90;;;;;;5012540;28;20026;-44
2024/02/04 08:31:52;;;;;;;0.43;0.43;;;10.20;99.90;;;;;;5011997;28;20356;-46
2024/02/04 08:34:20;;;;;;;0.40;0.40;;;10.20;99.90;;;;;;4994538;28;20022;-42
2024/02/04 08:36:45;;;;;;;1.33;0.40;;;10.10;99.90;;;;;;5012086;28;20014;-45
2024/02/04 08:39:11;;;;;;;1.20;0.43;;;10.20;99.90;;;;;;5012533;28;20392;-47
2024/02/04 08:41:37;;;;;;;0.63;0.63;;;10.20;99.90;;;;;;5012287;28;20155;-44
2024/02/04 08:44:02;;;;;;;0.28;0.25;;;10.20;99.90;;;;;;4992326;28;20515;-44
2024/02/04 08:46:28;;;;;;;0.68;0.43;;;10.20;99.90;;;;;;5004382;28;20091;-48
2024/02/04 08:48:53;;;;;;;1.08;0.70;;;10.20;99.90;;;;;;5011151;28;20030;-46
2024/02/04 08:51:19;;;;;;;0.70;0.50;;;10.20;99.90;;;;;;5012151;28;20022;-47
2024/02/04 08:53:45;;;;;;;0.80;0.40;;;10.20;99.90;;;;;;5011982;28;20028;-48
2024/02/04 08:56:10;;;;;;;0.50;0.50;;;10.30;99.90;;;;;;5012356;28;20088;-47
2024/02/04 08:58:37;;;;;;;0.40;0.40;;;10.20;99.90;;;;;;5012045;28;20072;-49
2024/02/04 09:01:06;;;;;;;1.27;0.55;;;10.30;99.90;;;;;;5012043;28;20026;-48
2024/02/04 09:03:32;;;;;;;0.40;0.40;;;10.30;99.90;;;;;;5012226;28;20133;-46
2024/02/04 09:05:58;;;;;;;0.47;0.47;;;10.50;99.90;;;;;;4994500;28;20125;-46
2024/02/04 09:08:23;;;;;;;1.13;0.70;;;10.50;99.90;;;;;;5012159;28;20121;-49
2024/02/04 09:10:49;;;;;;;0.43;0.43;;;10.60;99.90;;;;;;5011933;28;20052;-46
2024/02/04 09:13:14;;;;;;;0.50;0.50;;;10.80;99.90;;;;;;5011684;28;20034;-45
2024/02/04 09:15:40;;;;;;;0.60;0.60;;;11.00;99.90;;;;;;5004098;28;20018;-42
2024/02/04 09:18:06;;;;;;;0.60;0.60;;;11.20;99.90;;;;;;4992374;28;20061;-41
2024/02/04 09:20:31;;;;;;;3.45;1.52;;;11.30;99.90;;;;;;5007538;28;20031;-46
2024/02/04 09:22:56;;;;;;;0.40;0.40;;;11.30;99.90;;;;;;4992292;28;20479;-46
2024/02/04 09:25:22;;;;;;;0.50;0.50;;;11.30;99.90;;;;;;4993354;28;20083;-44
2024/02/04 09:27:47;;;;;;;0.40;0.40;;;11.30;99.90;;;;;;5011890;28;20479;-49
2024/02/04 09:30:13;;;;;;;0.70;0.70;;;11.20;99.90;;;;;;5011482;28;20029;-44
2024/02/04 09:32:39;;;;;;;0.60;0.60;;;11.20;99.90;;;;;;5011037;28;20022;-44
2024/02/04 09:35:04;;;;;;;0.40;0.40;;;11.30;99.90;;;;;;5010946;28;20036;-48
2024/02/04 09:37:30;;;;;;;0.52;0.30;;;11.40;99.90;;;;;;5011407;28;20104;-45
2024/02/04 09:39:55;;;;;;;0.40;0.40;;;11.70;99.90;;;;;;5011112;28;20380;-47
2024/02/04 09:42:22;;;;;;;0.40;0.40;;;11.80;99.90;;;;;;4994071;28;20032;-51
2024/02/04 09:44:49;;;;;;;0.40;0.40;;;11.90;99.90;;;;;;5014591;28;20029;-45
2024/02/04 09:47:14;;;;;;;1.05;0.50;;;12.20;99.90;;;;;;5013508;28;20049;-47
2024/02/04 09:49:41;;;;;;;0.38;0.38;;;12.20;99.90;;;;;;5014527;28;20469;-53
2024/02/04 09:52:08;;;;;;;0.40;0.40;;;12.20;99.90;;;;;;5015360;28;20022;-49
2024/02/04 09:54:42;;;;;;;0.63;0.63;;;12.30;99.90;;;;;;5015359;28;20026;-45
2024/02/04 09:57:08;;;;;;;0.50;0.50;;;12.20;99.90;;;;;;4997590;28;20022;-49
2024/02/04 09:59:35;;;;;;;2.00;0.30;;;12.10;99.90;;;;;;5014822;28;20034;-46
2024/02/04 10:02:02;;;;;;;0.40;0.40;;;12.00;99.90;;;;;;5015275;28;20402;-47
2024/02/04 10:04:27;;;;;;;0.50;0.50;;;12.00;99.90;;;;;;5013222;28;20033;-47
2024/02/04 10:06:53;;;;;;;0.50;0.50;;;11.90;99.90;;;;;;5014868;28;20030;-47
2024/02/04 10:09:19;;;;;;;1.40;0.50;;;11.70;99.90;;;;;;5013613;28;20435;-49
2024/02/04 10:11:44;;;;;;;3.03;0.90;;;11.60;99.90;;;;;;5014927;28;20025;-44
2024/02/04 10:14:10;;;;;;;0.60;0.60;;;11.40;99.90;;;;;;5013528;28;20430;-45
2024/02/04 10:16:36;;;;;;;1.10;0.40;;;11.40;99.90;;;;;;5014633;28;20029;-51
2024/02/04 10:19:02;;;;;;;0.75;0.50;;;11.40;99.90;;;;;;5014219;28;20022;-47
2024/02/04 10:21:28;;;;;;;0.80;0.80;;;11.40;99.90;;;;;;4996975;28;20030;-46
2024/02/04 10:23:55;;;;;;;0.52;0.52;;;11.30;99.90;;;;;;5012481;28;20036;-46
2024/02/04 10:26:21;;;;;;;0.50;0.50;;;11.30;99.90;;;;;;5014362;28;20375;-47
2024/02/04 10:28:48;;;;;;;0.63;0.63;;;11.30;99.90;;;;;;5014502;28;20087;-46
2024/02/04 10:31:13;;;;;;;0.55;0.55;;;11.30;99.90;;;;;;5014623;28;20387;-48
2024/02/04 10:33:40;;;;;;;0.63;0.63;;;11.40;99.90;;;;;;5014076;28;20040;-45
2024/02/04 10:36:06;;;;;;;0.80;0.80;;;11.30;99.90;;;;;;5014250;28;20061;-48
2024/02/04 10:38:35;;;;;;;1.30;0.80;;;11.20;99.90;;;;;;5013848;28;20491;-45
2024/02/04 10:41:01;;;;;;;0.50;0.50;;;11.20;99.90;;;;;;5012423;28;20114;-52
2024/02/04 10:43:32;;;;;;;0.60;0.57;;;11.20;99.90;;;;;;5012751;28;20499;-46
2024/02/04 10:46:04;;;;;;;1.13;0.68;;;11.20;99.90;;;;;;5013935;28;20079;-46
2024/02/04 10:48:38;;;;;;;1.27;0.70;;;11.20;99.90;;;;;;5014121;28;20052;-49
2024/02/04 10:51:04;;;;;;;0.93;0.90;;;11.20;99.90;;;;;;5014063;28;20049;-49
2024/02/04 10:53:30;;;;;;;0.60;0.60;;;11.20;99.90;;;;;;5013859;28;20364;-49
2024/02/04 10:56:02;;;;;;;0.75;0.75;;;11.20;99.90;;;;;;5012981;28;20129;-51
2024/02/04 10:58:29;;;;;;;0.98;0.90;;;11.30;99.90;;;;;;5013928;28;20029;-48
2024/02/04 11:00:55;;;;;;;1.08;0.85;;;11.30;99.90;;;;;;5014236;28;20076;-48
2024/02/04 11:03:21;;;;;;;3.00;1.40;;;11.40;99.90;;;;;;5011843;28;20034;-53
2024/02/04 11:05:48;;;;;;;1.30;1.30;;;11.50;99.90;;;;;;5013660;28;20033;-46
2024/02/04 11:08:14;;;;;;;16.45;9.80;;;11.60;99.90;;;;;;5012548;28;20052;-51
2024/02/04 11:10:40;;;;;;;1.35;1.20;;;11.70;99.90;;;;;;5014382;28;20106;-47
2024/02/04 11:13:09;;;;;;;5.47;0.80;;;11.70;99.90;;;;;;5012422;28;20117;-48
2024/02/04 11:15:37;;;;;;;0.70;0.70;;;11.60;99.90;;;;;;4995835;28;20026;-47
2024/02/04 11:18:13;;;;;;;0.60;0.43;;;11.50;99.90;;;;;;5013573;28;20446;-48
2024/02/04 11:21:18;;;;;;;1.00;0.90;;;11.40;99.90;;;;;;5013767;28;20035;-46
2024/02/04 11:24:13;;;;;;;0.70;0.70;;;11.40;99.90;;;;;;5013327;28;20395;-50
2024/02/04 11:26:40;;;;;;;0.57;0.57;;;11.50;99.90;;;;;;5013372;28;20029;-46
2024/02/04 11:29:07;;;;;;;0.82;0.60;;;11.50;99.90;;;;;;5013306;28;20583;-49
2024/02/04 11:31:32;;;;;;;0.70;0.70;;;11.60;99.90;;;;;;5012214;28;20033;-46
2024/02/04 11:33:58;;;;;;;0.63;0.63;;;11.60;99.90;;;;;;5011413;28;20026;-49
2024/02/04 11:36:25;;;;;;;0.50;0.50;;;11.60;99.90;;;;;;5012910;28;20487;-47
2024/02/04 11:38:51;;;;;;;0.60;0.60;;;11.60;99.90;;;;;;5012535;28;20036;-49
2024/02/04 11:41:24;;;;;;;0.50;0.50;;;11.60;99.90;;;;;;5013071;28;20113;-43
2024/02/04 11:43:53;;;;;;;0.82;0.80;;;11.70;99.90;;;;;;5012924;28;20021;-51
2024/02/04 11:46:19;;;;;;;0.80;0.80;;;11.70;99.90;;;;;;5011542;28;20033;-50
2024/02/04 11:48:54;;;;;;;0.60;0.60;;;11.70;99.90;;;;;;5013058;28;20041;-48
2024/02/04 11:51:24;;;;;;;0.57;0.57;;;11.60;99.90;;;;;;4995459;28;20026;-47
2024/02/04 11:53:50;;;;;;;1.73;0.60;;;11.50;99.90;;;;;;5013045;28;20487;-46
2024/02/04 11:56:16;;;;;;;0.50;0.50;;;11.50;99.90;;;;;;5012764;28;20032;-46
2024/02/04 11:58:42;;;;;;;0.70;0.70;;;11.50;99.90;;;;;;4995481;28;20034;-46
2024/02/04 12:01:11;;;;;;;2.25;0.70;;;11.40;99.90;;;;;;5013052;28;20387;-52
2024/02/04 12:03:36;;;;;;;1.35;1.25;;;11.50;99.90;;;;;;5012539;28;20026;-47
2024/02/04 12:06:03;;;;;;;0.70;0.70;;;11.50;99.90;;;;;;5010725;28;20052;-47
2024/02/04 12:08:32;;;;;;;1.25;0.75;;;11.50;99.90;;;;;;5011838;28;20062;-48
2024/02/04 12:10:59;;;;;;;0.77;0.77;;;11.50;99.90;;;;;;5012759;28;20018;-48
2024/02/04 12:13:25;;;;;;;0.68;0.68;;;11.50;99.90;;;;;;5012042;28;20036;-47
2024/02/04 12:15:51;;;;;;;0.50;0.50;;;11.40;99.90;;;;;;5012027;28;20021;-46
2024/02/04 12:18:19;;;;;;;0.80;0.80;;;11.50;99.90;;;;;;5031144;23;20136;-42
2024/02/04 12:20:51;;;;;;;0.80;0.80;;;11.40;99.90;;;;;;4994971;28;20018;-43
2024/02/04 12:23:18;;;;;;;1.08;0.88;;;11.40;99.90;;;;;;4992634;28;20096;-42
2024/02/04 12:25:44;;;;;;;0.60;0.60;;;11.40;99.90;;;;;;4993046;28;20473;-44
2024/02/04 12:28:10;;;;;;;0.80;0.80;;;11.40;99.90;;;;;;4997811;28;20026;-46
2024/02/04 12:30:36;;;;;;;1.02;1.02;;;11.50;99.90;;;;;;5012111;28;20496;-41
2024/02/04 12:33:06;;;;;;;0.60;0.60;;;11.60;99.90;;;;;;5012320;28;20494;-45
2024/02/04 12:35:32;;;;;;;3.28;1.27;;;11.60;99.90;;;;;;5012140;28;20057;-40
2024/02/04 12:37:59;;;;;;;0.80;0.80;;;11.70;99.90;;;;;;5012222;28;20018;-43
2024/02/04 12:40:29;;;;;;;0.82;0.82;;;11.70;99.90;;;;;;5012957;28;20092;-42
2024/02/04 12:42:57;;;;;;;0.90;0.90;;;11.70;99.90;;;;;;5011939;28;20109;-39
2024/02/04 12:45:23;;;;;;;1.23;1.20;;;11.70;99.90;;;;;;5011417;28;20022;-42
2024/02/04 12:47:53;;;;;;;0.57;0.57;;;11.70;99.90;;;;;;5010332;28;20037;-47